Lowes, Kentucky
Current Conditions -  °F | °C
As of 12:53 PM on Friday 28 Nov 2014 (Local Time) from KPAH Reporting Station
Clear Clear  
Wind Chill: 41°   Ceiling: Unl
Heat Index: 45°   Visibility: 10mi
Dew Point: 29°   Wind: 7mph
Humidity: 53%   Direction: NA
Pressure: 30.21"   Gusts: 17mph
Location:  36.89°N, 88.77°W
Report Text: KPAH 281853Z VRB06G15KT 10SM CLR 07/M02 A3021 RMK AO2 SLP231 T00721017
Loading
Personal Weather Stations






























Interactive Weather Map New forecast layout! Learn more

10-Day Weather Forecast

Advertisements
Track Severe Weather on mobile